createdAt,value
2019-06-26T00:02:26.264Z,19.94
2019-06-26T00:04:52.601Z,19.94
2019-06-26T00:07:18.908Z,19.85
2019-06-26T00:09:45.245Z,19.78
2019-06-26T00:12:11.551Z,19.77
2019-06-26T00:14:39.027Z,19.78
2019-06-26T00:17:04.196Z,19.88
2019-06-26T00:19:30.534Z,19.97
2019-06-26T00:21:56.834Z,20.00
2019-06-26T00:24:23.145Z,20.01
2019-06-26T00:26:49.484Z,20.01
2019-06-26T00:29:15.833Z,20.04
2019-06-26T00:31:42.161Z,20.09
2019-06-26T00:34:08.475Z,20.06
2019-06-26T00:36:34.803Z,20.09
2019-06-26T00:39:01.119Z,20.12
2019-06-26T00:41:27.450Z,20.10
2019-06-26T00:43:53.774Z,20.10
2019-06-26T00:46:20.108Z,20.09
2019-06-26T00:48:46.418Z,20.04
2019-06-26T00:51:12.724Z,20.09
2019-06-26T00:53:39.053Z,20.12
2019-06-26T00:56:05.420Z,20.19
2019-06-26T00:58:31.708Z,20.16
2019-06-26T01:00:58.019Z,20.07
2019-06-26T01:03:24.333Z,19.93
2019-06-26T01:05:50.668Z,19.92
2019-06-26T01:08:16.983Z,20.04
2019-06-26T01:10:43.317Z,20.14
2019-06-26T01:13:09.636Z,20.22
2019-06-26T01:15:35.940Z,20.21
2019-06-26T01:18:02.269Z,20.14
2019-06-26T01:20:28.582Z,20.15
2019-06-26T01:22:54.893Z,20.17
2019-06-26T01:25:21.230Z,20.18
2019-06-26T01:27:47.536Z,20.19
2019-06-26T01:30:13.878Z,20.21
2019-06-26T01:32:40.180Z,20.24
2019-06-26T01:35:06.516Z,20.22
2019-06-26T01:37:32.823Z,20.19
2019-06-26T01:39:59.162Z,20.21
2019-06-26T01:42:25.487Z,20.18
2019-06-26T01:44:51.797Z,20.12
2019-06-26T01:47:18.130Z,20.10
2019-06-26T01:49:44.445Z,20.14
2019-06-26T01:52:10.775Z,20.17
2019-06-26T01:54:37.096Z,20.24
2019-06-26T01:57:03.424Z,20.29
2019-06-26T01:59:29.750Z,20.27
2019-06-26T02:01:56.042Z,20.24
2019-06-26T02:04:22.366Z,20.27
2019-06-26T02:06:48.673Z,20.23
2019-06-26T02:09:15.001Z,20.22
2019-06-26T02:11:41.305Z,20.19
2019-06-26T02:14:07.630Z,20.22
2019-06-26T02:16:33.938Z,20.22
2019-06-26T02:19:00.269Z,20.20
2019-06-26T02:21:26.597Z,20.21
2019-06-26T02:23:52.902Z,20.12
2019-06-26T02:26:19.238Z,20.04
2019-06-26T02:28:45.552Z,20.03
2019-06-26T02:31:11.855Z,20.04
2019-06-26T02:33:38.186Z,20.01
2019-06-26T02:36:04.496Z,20.06
2019-06-26T02:38:30.829Z,20.09
2019-06-26T02:40:57.156Z,20.15
2019-06-26T02:43:23.483Z,20.16
2019-06-26T02:45:49.803Z,20.18
2019-06-26T02:48:16.107Z,20.18
2019-06-26T02:50:42.432Z,20.22
2019-06-26T02:53:08.733Z,20.30
2019-06-26T02:55:35.066Z,20.31
2019-06-26T02:58:01.365Z,20.27
2019-06-26T03:00:27.683Z,20.26
2019-06-26T03:02:54.001Z,20.25
2019-06-26T03:05:20.311Z,20.29
2019-06-26T03:07:46.704Z,20.28
2019-06-26T03:10:13.033Z,20.30
2019-06-26T03:12:39.345Z,20.30
2019-06-26T03:15:09.196Z,20.33
2019-06-26T03:17:31.979Z,20.35
2019-06-26T03:19:58.287Z,20.34
2019-06-26T03:22:24.610Z,20.38
2019-06-26T03:24:50.914Z,20.40
2019-06-26T03:27:17.249Z,20.40
2019-06-26T03:29:43.554Z,20.44
2019-06-26T03:32:09.880Z,20.51
2019-06-26T03:34:36.189Z,20.59
2019-06-26T03:37:02.521Z,20.78
2019-06-26T03:39:28.858Z,20.84
2019-06-26T03:41:55.164Z,20.87
2019-06-26T03:44:21.476Z,20.92
2019-06-26T03:46:47.787Z,20.93
2019-06-26T03:49:14.092Z,21.03
2019-06-26T03:51:40.440Z,21.13
2019-06-26T03:54:06.722Z,21.25
2019-06-26T03:56:33.059Z,21.17
2019-06-26T03:58:59.386Z,21.17
2019-06-26T04:01:25.688Z,21.24
2019-06-26T04:03:52.028Z,21.31
2019-06-26T04:06:18.328Z,21.51
2019-06-26T04:08:44.730Z,21.47
2019-06-26T04:11:10.965Z,21.49
2019-06-26T04:13:37.308Z,21.55
2019-06-26T04:16:03.614Z,21.69
2019-06-26T04:18:29.920Z,21.78
2019-06-26T04:20:56.320Z,21.86
2019-06-26T04:23:22.949Z,21.87
2019-06-26T04:25:48.957Z,21.87
2019-06-26T04:28:15.262Z,21.85
2019-06-26T04:30:41.583Z,21.79
2019-06-26T04:33:07.895Z,21.77
2019-06-26T04:35:34.221Z,21.79
2019-06-26T04:38:00.547Z,21.79
2019-06-26T04:40:26.851Z,21.75
2019-06-26T04:42:53.182Z,21.78
2019-06-26T04:45:19.516Z,21.90
2019-06-26T04:47:45.846Z,21.88
2019-06-26T04:50:12.140Z,21.85
2019-06-26T04:52:38.471Z,21.87
2019-06-26T04:55:04.772Z,22.08
2019-06-26T04:57:31.079Z,22.11
2019-06-26T04:59:57.424Z,22.09
2019-06-26T05:02:23.748Z,22.08
2019-06-26T05:04:50.092Z,22.15
2019-06-26T05:07:16.421Z,22.11
2019-06-26T05:09:42.721Z,22.05
2019-06-26T05:12:09.791Z,22.12
2019-06-26T05:14:36.093Z,22.13
2019-06-26T05:17:02.425Z,22.16
2019-06-26T05:19:28.738Z,22.25
2019-06-26T05:21:55.156Z,22.41
2019-06-26T05:24:21.485Z,22.57
2019-06-26T05:26:47.799Z,22.45
2019-06-26T05:29:14.125Z,22.35
2019-06-26T05:31:40.433Z,22.47
2019-06-26T05:34:10.520Z,22.64
2019-06-26T05:36:33.095Z,22.60
2019-06-26T05:38:59.402Z,22.45
2019-06-26T05:41:25.733Z,22.39
2019-06-26T05:43:52.110Z,22.40
2019-06-26T05:46:30.564Z,22.53
2019-06-26T05:48:44.696Z,22.91
2019-06-26T05:51:10.996Z,25.14
2019-06-26T05:53:37.296Z,26.64
2019-06-26T05:56:03.597Z,26.42
2019-06-26T05:58:29.922Z,26.50
2019-06-26T06:00:56.222Z,27.27
2019-06-26T06:03:22.548Z,28.00
2019-06-26T06:05:48.858Z,27.22
2019-06-26T06:08:15.200Z,26.55
2019-06-26T06:10:41.519Z,26.71
2019-06-26T06:13:07.887Z,27.95
2019-06-26T06:15:34.212Z,28.32
2019-06-26T06:18:00.516Z,28.01
2019-06-26T06:20:26.843Z,28.57
2019-06-26T06:22:53.152Z,29.35
2019-06-26T06:25:19.475Z,29.11
2019-06-26T06:27:45.794Z,28.72
2019-06-26T06:30:12.100Z,28.70
2019-06-26T06:32:38.428Z,29.13
2019-06-26T06:35:04.776Z,29.42
2019-06-26T06:37:31.147Z,28.22
2019-06-26T06:39:57.471Z,27.94
2019-06-26T06:42:23.862Z,26.74
2019-06-26T06:44:50.178Z,26.88
2019-06-26T06:47:16.483Z,28.64
2019-06-26T06:49:42.814Z,29.27
2019-06-26T06:52:09.134Z,29.66
2019-06-26T06:54:35.424Z,29.06
2019-06-26T06:57:01.748Z,29.22
2019-06-26T06:59:28.094Z,29.35
2019-06-26T07:01:54.420Z,29.83
2019-06-26T07:04:20.724Z,29.40
2019-06-26T07:06:47.060Z,29.38
2019-06-26T07:09:13.363Z,29.66
2019-06-26T07:11:39.711Z,28.66
2019-06-26T07:14:06.052Z,28.17
2019-06-26T07:16:32.353Z,27.93
2019-06-26T07:18:58.687Z,28.11
2019-06-26T07:21:24.985Z,28.56
2019-06-26T07:23:51.311Z,27.04
2019-06-26T07:26:17.618Z,25.92
2019-06-26T07:28:43.949Z,26.67
2019-06-26T07:31:10.331Z,27.98
2019-06-26T07:33:36.719Z,29.53
2019-06-26T07:36:03.040Z,27.53
2019-06-26T07:38:29.351Z,28.06
2019-06-26T07:40:55.693Z,28.43
2019-06-26T07:43:22.007Z,27.14
2019-06-26T07:45:48.309Z,26.33
2019-06-26T07:48:14.652Z,25.74
2019-06-26T07:50:41.000Z,25.69
2019-06-26T07:53:07.323Z,26.12
2019-06-26T07:55:33.656Z,26.21
2019-06-26T07:57:59.985Z,26.53
2019-06-26T08:00:26.316Z,27.11
2019-06-26T08:02:52.620Z,26.52
2019-06-26T08:05:18.955Z,26.62
2019-06-26T08:07:45.253Z,27.88
2019-06-26T08:10:11.586Z,28.64
2019-06-26T08:12:37.903Z,29.36
2019-06-26T08:15:04.209Z,29.43
2019-06-26T08:17:30.540Z,29.32
2019-06-26T08:19:56.862Z,29.58
2019-06-26T08:22:23.216Z,29.34
2019-06-26T08:24:49.545Z,29.23
2019-06-26T08:27:15.852Z,29.80
2019-06-26T08:29:42.179Z,29.86
2019-06-26T08:32:08.496Z,29.19
2019-06-26T08:34:34.818Z,29.45
2019-06-26T08:37:01.137Z,29.24
2019-06-26T08:39:27.446Z,28.20
2019-06-26T08:41:53.766Z,28.54
2019-06-26T08:44:20.085Z,28.70
2019-06-26T08:46:46.436Z,29.39
2019-06-26T08:49:24.882Z,29.78
2019-06-26T08:51:39.056Z,28.35
2019-06-26T08:54:05.383Z,28.12
2019-06-26T08:56:31.684Z,29.27
2019-06-26T08:58:58.021Z,30.04
2019-06-26T09:01:24.342Z,30.77
2019-06-26T09:03:50.650Z,30.72
2019-06-26T09:06:16.980Z,30.60
2019-06-26T09:08:43.293Z,30.58
2019-06-26T09:11:09.601Z,30.78
2019-06-26T09:13:35.934Z,30.82
2019-06-26T09:16:02.252Z,31.29
2019-06-26T09:18:35.344Z,30.37
2019-06-26T09:20:54.918Z,29.50
2019-06-26T09:23:21.238Z,29.52
2019-06-26T09:25:47.544Z,28.66
2019-06-26T09:28:13.870Z,27.56
2019-06-26T09:30:40.192Z,27.07
2019-06-26T09:33:06.488Z,26.74
2019-06-26T09:35:32.818Z,26.78
2019-06-26T09:37:59.155Z,27.13
2019-06-26T09:40:25.452Z,27.08
2019-06-26T09:42:51.758Z,26.97
2019-06-26T09:45:18.088Z,27.12
2019-06-26T09:47:44.394Z,28.36
2019-06-26T09:50:10.700Z,29.53
2019-06-26T09:52:37.023Z,29.39
2019-06-26T09:55:03.324Z,28.42
2019-06-26T09:57:29.651Z,27.94
2019-06-26T09:59:55.957Z,28.42
2019-06-26T10:02:22.306Z,29.35
2019-06-26T10:04:48.612Z,30.20
2019-06-26T10:07:14.941Z,30.22
2019-06-26T10:09:41.266Z,30.88
2019-06-26T10:12:07.571Z,30.96
2019-06-26T10:14:46.577Z,31.26
2019-06-26T10:17:00.215Z,31.25
2019-06-26T10:19:26.533Z,31.22
2019-06-26T10:21:52.859Z,31.09
2019-06-26T10:24:19.169Z,31.60
2019-06-26T10:26:45.498Z,31.79
2019-06-26T10:29:11.820Z,31.80
2019-06-26T10:31:38.144Z,31.56
2019-06-26T10:34:04.475Z,31.83
2019-06-26T10:36:30.789Z,31.39
2019-06-26T10:38:57.112Z,31.64
2019-06-26T10:41:23.421Z,31.13
2019-06-26T10:43:49.755Z,29.32
2019-06-26T10:46:16.059Z,28.46
2019-06-26T10:48:42.373Z,28.05
2019-06-26T10:51:08.731Z,27.77
2019-06-26T10:53:35.033Z,27.96
2019-06-26T10:56:01.368Z,28.37
2019-06-26T10:58:27.679Z,29.11
2019-06-26T11:00:53.997Z,29.16
2019-06-26T11:03:20.300Z,29.72
2019-06-26T11:05:46.659Z,30.05
2019-06-26T11:08:12.952Z,29.40
2019-06-26T11:10:39.270Z,28.99
2019-06-26T11:13:05.591Z,28.76
2019-06-26T11:15:31.893Z,28.42
2019-06-26T11:17:58.215Z,28.11
2019-06-26T11:20:24.524Z,27.88
2019-06-26T11:22:50.872Z,28.24
2019-06-26T11:25:17.168Z,28.35
2019-06-26T11:27:43.461Z,28.46
2019-06-26T11:30:09.807Z,28.72
2019-06-26T11:32:36.130Z,28.51
2019-06-26T11:35:02.580Z,28.97
2019-06-26T11:37:28.809Z,29.01
2019-06-26T11:39:55.164Z,29.25
2019-06-26T11:42:21.456Z,29.47
2019-06-26T11:44:47.740Z,29.58
2019-06-26T11:47:14.056Z,29.47
2019-06-26T11:49:40.385Z,29.27
2019-06-26T11:52:06.706Z,29.28
2019-06-26T11:54:33.008Z,29.38
2019-06-26T11:56:59.317Z,29.48
2019-06-26T11:59:25.638Z,29.40
2019-06-26T12:01:51.971Z,29.09
2019-06-26T12:04:18.281Z,28.93
2019-06-26T12:06:46.082Z,28.85
2019-06-26T12:09:10.905Z,28.72
2019-06-26T12:11:37.240Z,28.70
2019-06-26T12:14:03.542Z,28.91
2019-06-26T12:16:29.888Z,29.16
2019-06-26T12:18:56.193Z,28.95
2019-06-26T12:21:22.517Z,28.86
2019-06-26T12:23:48.821Z,29.07
2019-06-26T12:26:15.128Z,29.29
2019-06-26T12:28:41.451Z,29.50
2019-06-26T12:31:07.762Z,29.67
2019-06-26T12:33:34.093Z,29.69
2019-06-26T12:36:00.404Z,29.34
2019-06-26T12:38:26.732Z,29.13
2019-06-26T12:40:53.036Z,29.16
2019-06-26T12:43:19.368Z,29.12
2019-06-26T12:45:45.692Z,28.99
2019-06-26T12:48:15.206Z,28.85
2019-06-26T12:50:38.321Z,29.09
2019-06-26T12:53:04.620Z,29.36
2019-06-26T12:55:33.025Z,29.76
2019-06-26T12:58:11.739Z,29.66
2019-06-26T13:00:23.580Z,30.00
2019-06-26T13:02:49.888Z,29.92
2019-06-26T13:05:16.210Z,29.41
2019-06-26T13:07:42.517Z,29.23
2019-06-26T13:10:08.840Z,29.10
2019-06-26T13:12:35.150Z,29.11
2019-06-26T13:15:01.479Z,28.90
2019-06-26T13:17:27.808Z,29.44
2019-06-26T13:19:54.142Z,29.82
2019-06-26T13:22:20.443Z,29.99
2019-06-26T13:24:46.734Z,30.71
2019-06-26T13:27:13.064Z,31.01
2019-06-26T13:29:39.369Z,31.60
2019-06-26T13:32:05.701Z,32.20
2019-06-26T13:34:32.022Z,32.53
2019-06-26T13:36:58.329Z,32.68
2019-06-26T13:39:24.660Z,31.02
2019-06-26T13:41:50.964Z,29.57
2019-06-26T13:44:17.269Z,28.72
2019-06-26T13:46:43.611Z,28.43
2019-06-26T13:49:09.921Z,28.05
2019-06-26T13:51:36.354Z,27.93
2019-06-26T13:54:02.592Z,27.88
2019-06-26T13:56:28.910Z,28.09
2019-06-26T13:58:55.212Z,28.25
2019-06-26T14:01:23.147Z,28.11
2019-06-26T14:03:47.870Z,28.16
2019-06-26T14:06:14.188Z,28.16
2019-06-26T14:08:40.560Z,28.09
2019-06-26T14:11:07.662Z,28.07
2019-06-26T14:13:33.168Z,28.01
2019-06-26T14:15:59.492Z,27.90
2019-06-26T14:18:25.819Z,27.94
2019-06-26T14:20:52.144Z,28.08
2019-06-26T14:23:18.475Z,28.13
2019-06-26T14:25:44.783Z,28.16
2019-06-26T14:28:11.123Z,28.02
2019-06-26T14:30:37.430Z,27.99
2019-06-26T14:33:03.755Z,27.92
2019-06-26T14:35:30.055Z,27.82
2019-06-26T14:37:56.388Z,27.90
2019-06-26T14:40:22.692Z,27.88
2019-06-26T14:42:49.178Z,27.83
2019-06-26T14:45:15.324Z,28.05
2019-06-26T14:47:41.630Z,28.01
2019-06-26T14:50:07.969Z,27.87
2019-06-26T14:52:35.222Z,27.92
2019-06-26T14:55:00.615Z,27.79
2019-06-26T14:57:26.924Z,27.73
2019-06-26T14:59:53.247Z,27.65
2019-06-26T15:02:19.571Z,27.62
2019-06-26T15:04:46.238Z,27.63
2019-06-26T15:07:12.214Z,27.56
2019-06-26T15:09:38.518Z,27.69
2019-06-26T15:12:04.856Z,27.55
2019-06-26T15:14:31.161Z,27.57
2019-06-26T15:16:57.490Z,27.46
2019-06-26T15:19:23.799Z,27.22
2019-06-26T15:21:58.240Z,27.15
2019-06-26T15:24:16.479Z,27.05
2019-06-26T15:26:42.782Z,26.91
2019-06-26T15:29:09.118Z,26.92
2019-06-26T15:31:35.436Z,26.98
2019-06-26T15:34:01.755Z,26.94
2019-06-26T15:36:28.082Z,26.94
2019-06-26T15:38:54.388Z,27.01
2019-06-26T15:41:20.704Z,27.13
2019-06-26T15:43:47.045Z,27.10
2019-06-26T15:46:13.338Z,27.19
2019-06-26T15:48:39.746Z,27.16
2019-06-26T15:51:05.965Z,27.15
2019-06-26T15:53:32.295Z,27.11
2019-06-26T15:55:58.596Z,27.01
2019-06-26T15:58:24.927Z,26.95
2019-06-26T16:00:51.245Z,26.88
2019-06-26T16:03:17.552Z,26.89
2019-06-26T16:05:43.874Z,27.00
2019-06-26T16:08:10.181Z,27.02
2019-06-26T16:10:36.497Z,26.99
2019-06-26T16:13:02.825Z,27.05
2019-06-26T16:15:29.151Z,27.07
2019-06-26T16:17:55.457Z,26.92
2019-06-26T16:20:21.759Z,26.79
2019-06-26T16:22:48.127Z,26.79
2019-06-26T16:25:14.427Z,26.76
2019-06-26T16:27:40.751Z,26.74
2019-06-26T16:30:07.072Z,26.67
2019-06-26T16:32:33.407Z,26.67
2019-06-26T16:34:59.721Z,26.61
2019-06-26T16:37:26.051Z,26.58
2019-06-26T16:39:52.375Z,26.57
2019-06-26T16:42:18.682Z,26.48
2019-06-26T16:44:45.008Z,26.36
2019-06-26T16:47:11.312Z,26.39
2019-06-26T16:49:37.627Z,26.45
2019-06-26T16:52:04.040Z,26.45
2019-06-26T16:54:30.257Z,26.44
2019-06-26T16:56:56.582Z,26.39
2019-06-26T16:59:22.905Z,26.39
2019-06-26T17:01:49.212Z,26.32
2019-06-26T17:04:15.543Z,26.21
2019-06-26T17:06:41.962Z,26.21
2019-06-26T17:09:08.530Z,26.24
2019-06-26T17:11:34.836Z,26.22
2019-06-26T17:14:01.205Z,26.21
2019-06-26T17:16:27.522Z,26.24
2019-06-26T17:18:53.826Z,26.31
2019-06-26T17:21:20.151Z,26.34
2019-06-26T17:23:46.462Z,26.24
2019-06-26T17:26:12.787Z,26.36
2019-06-26T17:28:39.096Z,26.38
2019-06-26T17:31:05.520Z,26.38
2019-06-26T17:33:31.822Z,26.38
2019-06-26T17:35:58.142Z,26.40
2019-06-26T17:38:24.471Z,26.22
2019-06-26T17:40:50.780Z,26.03
2019-06-26T17:43:17.109Z,26.02
2019-06-26T17:45:43.413Z,25.97
2019-06-26T17:48:09.740Z,25.91
2019-06-26T17:50:36.050Z,25.78
2019-06-26T17:53:02.375Z,25.78
2019-06-26T17:55:28.686Z,25.66
2019-06-26T17:57:54.990Z,25.69
2019-06-26T18:00:21.319Z,25.61
2019-06-26T18:02:47.620Z,25.60
2019-06-26T18:05:13.947Z,25.52
2019-06-26T18:07:40.274Z,25.45
2019-06-26T18:10:06.578Z,25.39
2019-06-26T18:12:32.903Z,25.34
2019-06-26T18:14:59.207Z,25.26
2019-06-26T18:17:25.518Z,25.22
2019-06-26T18:19:53.898Z,25.16
2019-06-26T18:22:18.142Z,25.11
2019-06-26T18:24:44.510Z,25.04
2019-06-26T18:27:10.781Z,24.98
2019-06-26T18:29:37.155Z,24.97
2019-06-26T18:32:03.466Z,24.95
2019-06-26T18:34:29.904Z,24.87
2019-06-26T18:36:56.116Z,24.84
2019-06-26T18:39:22.436Z,24.80
2019-06-26T18:41:48.763Z,24.76
2019-06-26T18:44:15.072Z,24.59
2019-06-26T18:46:41.392Z,24.45
2019-06-26T18:49:07.729Z,24.40
2019-06-26T18:51:34.029Z,24.32
2019-06-26T18:54:01.228Z,24.23
2019-06-26T18:56:26.679Z,24.14
2019-06-26T18:58:53.014Z,24.09
2019-06-26T19:01:19.353Z,24.04
2019-06-26T19:03:45.632Z,24.01
2019-06-26T19:06:11.996Z,23.97
2019-06-26T19:08:38.401Z,23.94
2019-06-26T19:11:04.760Z,23.90
2019-06-26T19:13:31.061Z,23.89
2019-06-26T19:15:57.370Z,23.91
2019-06-26T19:18:23.725Z,23.89
2019-06-26T19:20:50.001Z,23.90
2019-06-26T19:23:16.319Z,23.85
2019-06-26T19:25:42.649Z,23.84
2019-06-26T19:28:08.963Z,23.86
2019-06-26T19:30:35.288Z,23.75
2019-06-26T19:33:01.645Z,23.70
2019-06-26T19:35:27.933Z,23.68
2019-06-26T19:37:54.261Z,23.70
2019-06-26T19:40:23.834Z,23.80
2019-06-26T19:42:46.907Z,23.85
2019-06-26T19:45:13.259Z,23.85
2019-06-26T19:47:39.587Z,23.87
2019-06-26T19:50:05.892Z,23.88
2019-06-26T19:52:32.241Z,23.93
2019-06-26T19:54:58.554Z,23.91
2019-06-26T19:57:24.858Z,23.96
2019-06-26T19:59:51.194Z,23.95
2019-06-26T20:02:17.497Z,23.92
2019-06-26T20:04:43.821Z,23.91
2019-06-26T20:07:12.386Z,23.87
2019-06-26T20:09:48.265Z,23.83
2019-06-26T20:12:14.856Z,23.78
2019-06-26T20:14:43.615Z,23.69
2019-06-26T20:17:10.319Z,23.63
2019-06-26T20:19:37.166Z,23.59
2019-06-26T20:24:51.077Z,23.56
2019-06-26T20:27:19.664Z,23.47
2019-06-26T20:29:46.446Z,23.40
2019-06-26T20:32:15.045Z,23.35
2019-06-26T20:34:49.134Z,23.26
2019-06-26T20:37:15.883Z,23.26
2019-06-26T20:39:43.241Z,23.27
2019-06-26T20:42:10.969Z,23.26
2019-06-26T20:44:38.848Z,23.19
2019-06-26T20:47:08.305Z,23.07
2019-06-26T20:49:35.197Z,22.95
2019-06-26T20:52:02.395Z,22.90
2019-06-26T20:54:30.854Z,22.83
2019-06-26T20:56:57.794Z,22.76
2019-06-26T21:02:16.272Z,22.76
2019-06-26T21:04:43.210Z,22.71
2019-06-26T21:07:15.581Z,22.67
2019-06-26T21:09:42.078Z,22.62
2019-06-26T21:12:08.564Z,22.61
2019-06-26T21:14:35.040Z,22.63
2019-06-26T21:17:01.934Z,22.57
2019-06-26T21:19:28.846Z,22.55
2019-06-26T21:21:55.378Z,22.47
2019-06-26T21:24:21.897Z,22.41
2019-06-26T21:26:53.138Z,22.33
2019-06-26T21:29:19.562Z,22.31
2019-06-26T21:31:46.330Z,22.28
2019-06-26T21:34:14.003Z,22.27
2019-06-26T21:36:40.399Z,22.23
2019-06-26T21:39:07.004Z,22.21
2019-06-26T21:41:33.480Z,22.15
2019-06-26T21:44:01.473Z,22.09
2019-06-26T21:46:27.879Z,22.07
2019-06-26T21:48:54.320Z,21.98
2019-06-26T21:51:20.662Z,21.89
2019-06-26T21:53:47.071Z,21.80
2019-06-26T21:56:13.403Z,21.73
2019-06-26T21:58:39.715Z,21.71
2019-06-26T22:01:06.060Z,21.67
2019-06-26T22:03:32.385Z,21.65
2019-06-26T22:05:58.691Z,21.60
2019-06-26T22:08:25.053Z,21.65
2019-06-26T22:10:51.328Z,21.63
2019-06-26T22:13:17.637Z,21.60
2019-06-26T22:15:43.978Z,21.57
2019-06-26T22:18:10.274Z,21.51
2019-06-26T22:20:36.605Z,21.52
2019-06-26T22:23:02.917Z,21.63
2019-06-26T22:25:29.242Z,21.68
2019-06-26T22:27:55.553Z,21.67
2019-06-26T22:30:21.880Z,21.63
2019-06-26T22:32:48.203Z,21.52
2019-06-26T22:35:14.585Z,21.35
2019-06-26T22:37:40.911Z,21.30
2019-06-26T22:40:07.220Z,21.35
2019-06-26T22:42:33.544Z,21.28
2019-06-26T22:44:59.868Z,21.15
2019-06-26T22:47:26.186Z,21.16
2019-06-26T22:49:52.509Z,21.08
2019-06-26T22:52:18.815Z,21.16
2019-06-26T22:54:45.149Z,21.27
2019-06-26T22:57:11.463Z,21.32
2019-06-26T22:59:37.805Z,21.40
2019-06-26T23:02:04.126Z,21.31
2019-06-26T23:04:30.462Z,21.24
2019-06-26T23:06:56.777Z,21.26
2019-06-26T23:09:23.110Z,21.22
2019-06-26T23:11:49.442Z,21.20
2019-06-26T23:14:15.755Z,21.21
2019-06-26T23:16:42.085Z,21.21
2019-06-26T23:19:08.399Z,21.19
2019-06-26T23:21:34.718Z,21.23
2019-06-26T23:24:01.049Z,21.15
2019-06-26T23:26:27.361Z,21.17
2019-06-26T23:28:53.693Z,21.17
2019-06-26T23:31:20.031Z,21.10
2019-06-26T23:33:46.343Z,21.07
2019-06-26T23:36:12.673Z,21.04
2019-06-26T23:38:38.985Z,21.04
2019-06-26T23:41:05.322Z,21.03
2019-06-26T23:43:31.636Z,21.11
2019-06-26T23:45:57.969Z,21.18
2019-06-26T23:48:24.292Z,21.20
2019-06-26T23:50:50.593Z,21.18
2019-06-26T23:53:16.934Z,21.20
2019-06-26T23:55:43.239Z,21.17
2019-06-26T23:58:09.574Z,21.20
